createdAt,value
2018-12-13T00:02:01.360Z,24.60
2018-12-13T00:04:27.743Z,24.63
2018-12-13T00:06:54.077Z,24.57
2018-12-13T00:09:20.509Z,24.58
2018-12-13T00:11:46.873Z,24.63
2018-12-13T00:14:13.213Z,24.86
2018-12-13T00:16:39.605Z,24.67
2018-12-13T00:19:05.928Z,24.69
2018-12-13T00:21:32.270Z,24.61
2018-12-13T00:23:58.585Z,24.78
2018-12-13T00:26:24.987Z,24.63
2018-12-13T00:28:51.379Z,24.55
2018-12-13T00:31:17.734Z,24.67
2018-12-13T00:33:44.069Z,24.56
2018-12-13T00:36:10.410Z,24.78
2018-12-13T00:38:36.730Z,24.72
2018-12-13T00:41:03.109Z,24.96
2018-12-13T00:43:29.500Z,24.70
2018-12-13T00:45:55.826Z,24.85
2018-12-13T00:48:22.142Z,24.90
2018-12-13T00:50:48.460Z,24.83
2018-12-13T00:53:14.804Z,24.99
2018-12-13T00:55:41.140Z,25.04
2018-12-13T00:58:07.495Z,24.92
2018-12-13T01:00:33.861Z,24.96
2018-12-13T01:03:00.202Z,24.21
2018-12-13T01:05:26.549Z,23.54
2018-12-13T01:07:52.891Z,23.49
2018-12-13T01:10:19.242Z,23.61
2018-12-13T01:12:45.582Z,23.50
2018-12-13T01:15:11.935Z,23.78
2018-12-13T01:17:38.267Z,23.77
2018-12-13T01:20:04.592Z,23.98
2018-12-13T01:22:30.923Z,24.10
2018-12-13T01:24:57.292Z,24.00
2018-12-13T01:27:23.646Z,24.25
2018-12-13T01:29:49.989Z,24.31
2018-12-13T01:32:16.374Z,24.12
2018-12-13T01:34:42.701Z,24.23
2018-12-13T01:37:09.030Z,24.15
2018-12-13T01:39:35.474Z,24.22
2018-12-13T01:42:01.815Z,24.06
2018-12-13T01:44:28.146Z,24.07
2018-12-13T01:46:54.521Z,24.41
2018-12-13T01:49:20.845Z,24.38
2018-12-13T01:51:47.244Z,24.51
2018-12-13T01:54:13.574Z,24.54
2018-12-13T01:56:39.906Z,24.41
2018-12-13T01:59:06.255Z,24.38
2018-12-13T02:01:32.582Z,24.64
2018-12-13T02:03:58.956Z,24.48
2018-12-13T02:06:25.289Z,24.32
2018-12-13T02:08:51.672Z,24.32
2018-12-13T02:11:18.012Z,24.20
2018-12-13T02:13:44.416Z,23.42
2018-12-13T02:16:10.784Z,23.45
2018-12-13T02:18:37.071Z,23.33
2018-12-13T02:21:03.402Z,23.01
2018-12-13T02:23:29.749Z,22.83
2018-12-13T02:25:56.082Z,22.81
2018-12-13T02:28:22.420Z,22.68
2018-12-13T02:30:48.785Z,22.63
2018-12-13T02:33:15.116Z,22.87
2018-12-13T02:35:41.495Z,22.56
2018-12-13T02:38:07.829Z,22.22
2018-12-13T02:40:34.236Z,22.07
2018-12-13T02:43:00.585Z,22.01
2018-12-13T02:45:27.030Z,21.87
2018-12-13T02:47:53.406Z,21.90
2018-12-13T02:50:19.731Z,21.71
2018-12-13T02:52:46.058Z,21.38
2018-12-13T02:55:12.390Z,21.38
2018-12-13T02:57:38.793Z,21.28
2018-12-13T03:00:05.126Z,21.29
2018-12-13T03:02:31.492Z,21.10
2018-12-13T03:04:57.858Z,21.19
2018-12-13T03:07:24.195Z,21.03
2018-12-13T03:09:50.515Z,21.07
2018-12-13T03:12:16.849Z,20.99
2018-12-13T03:14:43.217Z,20.93
2018-12-13T03:17:09.514Z,20.90
2018-12-13T03:19:35.843Z,20.84
2018-12-13T03:22:02.172Z,20.83
2018-12-13T03:24:28.504Z,21.08
2018-12-13T03:26:54.840Z,20.72
2018-12-13T03:29:21.182Z,20.69
2018-12-13T03:31:47.536Z,20.71
2018-12-13T03:34:13.911Z,20.62
2018-12-13T03:36:40.275Z,20.44
2018-12-13T03:39:06.570Z,20.58
2018-12-13T03:41:32.903Z,20.64
2018-12-13T03:43:59.237Z,20.79
2018-12-13T03:46:25.565Z,20.68
2018-12-13T03:48:51.927Z,20.64
2018-12-13T03:51:18.218Z,21.03
2018-12-13T03:53:44.558Z,20.51
2018-12-13T03:56:10.893Z,20.65
2018-12-13T03:58:37.221Z,20.41
2018-12-13T04:01:03.571Z,20.43
2018-12-13T04:03:29.903Z,20.31
2018-12-13T04:05:56.272Z,20.29
2018-12-13T04:08:22.622Z,20.68
2018-12-13T04:10:48.962Z,20.84
2018-12-13T04:13:15.321Z,20.93
2018-12-13T04:15:41.673Z,20.76
2018-12-13T04:18:08.001Z,20.59
2018-12-13T04:20:34.334Z,20.77
2018-12-13T04:23:00.666Z,20.58
2018-12-13T04:25:26.996Z,20.75
2018-12-13T04:27:53.334Z,20.76
2018-12-13T04:30:19.677Z,20.98
2018-12-13T04:32:46.012Z,21.01
2018-12-13T04:35:12.345Z,20.95
2018-12-13T04:37:38.694Z,21.05
2018-12-13T04:40:05.058Z,21.12
2018-12-13T04:42:31.381Z,21.22
2018-12-13T04:44:57.708Z,21.16
2018-12-13T04:47:24.105Z,21.24
2018-12-13T04:49:50.435Z,21.23
2018-12-13T04:52:16.758Z,21.26
2018-12-13T04:54:43.112Z,21.13
2018-12-13T04:57:09.462Z,21.02
2018-12-13T04:59:35.876Z,21.01
2018-12-13T05:02:02.203Z,21.27
2018-12-13T05:04:29.764Z,21.17
2018-12-13T05:06:54.878Z,21.03
2018-12-13T05:09:21.199Z,21.06
2018-12-13T05:11:47.599Z,21.05
2018-12-13T05:14:13.910Z,20.98
2018-12-13T05:16:40.259Z,21.00
2018-12-13T05:19:06.697Z,21.01
2018-12-13T05:21:33.077Z,20.81
2018-12-13T05:23:59.471Z,20.87
2018-12-13T05:26:25.801Z,20.85
2018-12-13T05:28:52.259Z,20.71
2018-12-13T05:31:18.594Z,20.50
2018-12-13T05:33:44.962Z,20.55
2018-12-13T05:36:11.456Z,20.58
2018-12-13T05:38:37.805Z,20.42
2018-12-13T05:41:04.209Z,20.49
2018-12-13T05:43:33.604Z,20.34
2018-12-13T05:45:59.942Z,20.36
2018-12-13T05:48:26.294Z,20.84
2018-12-13T05:50:52.686Z,20.94
2018-12-13T05:53:19.015Z,20.29
2018-12-13T05:55:45.365Z,20.91
2018-12-13T05:58:11.708Z,21.06
2018-12-13T06:00:38.107Z,20.81
2018-12-13T06:03:04.500Z,20.94
2018-12-13T06:05:30.866Z,20.89
2018-12-13T06:07:57.237Z,21.09
2018-12-13T06:10:23.638Z,21.21
2018-12-13T06:12:49.967Z,21.22
2018-12-13T06:15:16.316Z,21.36
2018-12-13T06:17:42.647Z,21.55
2018-12-13T06:20:09.026Z,21.54
2018-12-13T06:22:35.420Z,21.70
2018-12-13T06:25:01.753Z,21.44
2018-12-13T06:27:28.080Z,22.05
2018-12-13T06:29:58.882Z,22.13
2018-12-13T06:32:20.814Z,22.16
2018-12-13T06:34:47.146Z,22.34
2018-12-13T06:37:13.609Z,22.10
2018-12-13T06:39:39.988Z,22.16
2018-12-13T06:42:07.461Z,22.07
2018-12-13T06:44:33.929Z,22.32
2018-12-13T06:47:00.295Z,22.06
2018-12-13T06:49:26.659Z,22.05
2018-12-13T06:51:52.988Z,21.71
2018-12-13T06:54:21.495Z,21.97
2018-12-13T06:56:47.820Z,21.70
2018-12-13T06:59:14.150Z,22.13
2018-12-13T07:01:40.528Z,21.77
2018-12-13T07:04:06.935Z,21.12
2018-12-13T07:06:33.355Z,21.19
2018-12-13T07:08:59.694Z,20.97
2018-12-13T07:11:26.021Z,20.99
2018-12-13T07:13:52.559Z,21.62
2018-12-13T07:16:19.076Z,20.62
2018-12-13T07:18:45.479Z,21.38
2018-12-13T07:21:11.866Z,21.61
2018-12-13T07:23:38.257Z,20.86
2018-12-13T07:26:04.595Z,20.29
2018-12-13T07:28:30.949Z,21.10
2018-12-13T07:30:57.747Z,20.45
2018-12-13T07:33:24.078Z,20.63
2018-12-13T07:35:50.549Z,20.60
2018-12-13T07:38:17.291Z,20.52
2018-12-13T07:40:45.657Z,20.62
2018-12-13T07:43:12.089Z,20.18
2018-12-13T07:45:38.523Z,19.89
2018-12-13T07:48:04.916Z,19.84
2018-12-13T07:50:31.313Z,20.37
2018-12-13T07:52:57.816Z,20.20
2018-12-13T07:55:24.584Z,19.65
2018-12-13T07:57:53.307Z,19.86
2018-12-13T08:00:19.640Z,19.86
2018-12-13T08:02:46.034Z,19.99
2018-12-13T08:05:12.442Z,19.59
2018-12-13T08:07:38.979Z,19.62
2018-12-13T08:10:05.315Z,19.42
2018-12-13T08:12:31.715Z,19.37
2018-12-13T08:14:58.071Z,19.58
2018-12-13T08:17:24.425Z,20.08
2018-12-13T08:19:50.864Z,19.83
2018-12-13T08:22:17.260Z,19.85
2018-12-13T08:24:43.651Z,20.00
2018-12-13T08:27:10.000Z,20.08
2018-12-13T08:29:36.419Z,20.17
2018-12-13T08:32:02.768Z,20.42
2018-12-13T08:34:29.140Z,20.07
2018-12-13T08:36:55.533Z,20.28
2018-12-13T08:39:21.867Z,19.97
2018-12-13T08:41:48.227Z,19.96
2018-12-13T08:44:15.644Z,20.69
2018-12-13T08:46:42.588Z,20.28
2018-12-13T08:49:09.055Z,20.13
2018-12-13T08:51:35.411Z,20.11
2018-12-13T08:54:01.779Z,20.54
2018-12-13T08:56:28.138Z,20.07
2018-12-13T08:58:54.545Z,19.75
2018-12-13T09:01:20.954Z,20.63
2018-12-13T09:03:47.412Z,20.01
2018-12-13T09:06:13.773Z,19.99
2018-12-13T09:08:40.132Z,20.78
2018-12-13T09:11:06.488Z,20.43
2018-12-13T09:13:32.838Z,20.23
2018-12-13T09:15:59.188Z,20.40
2018-12-13T09:18:25.531Z,20.26
2018-12-13T09:20:51.968Z,20.36
2018-12-13T09:23:18.357Z,20.84
2018-12-13T09:25:44.757Z,20.20
2018-12-13T09:28:11.103Z,20.15
2018-12-13T09:30:37.476Z,20.41
2018-12-13T09:33:03.873Z,20.42
2018-12-13T09:35:30.201Z,20.47
2018-12-13T09:37:56.630Z,20.62
2018-12-13T09:40:22.957Z,20.36
2018-12-13T09:42:49.295Z,20.49
2018-12-13T09:45:15.643Z,20.13
2018-12-13T09:47:42.018Z,20.30
2018-12-13T09:50:08.590Z,20.21
2018-12-13T09:52:34.981Z,19.85
2018-12-13T09:55:05.669Z,19.71
2018-12-13T09:57:27.756Z,20.12
2018-12-13T09:59:54.098Z,20.75
2018-12-13T10:02:20.479Z,20.30
2018-12-13T10:04:46.804Z,20.24
2018-12-13T10:07:13.202Z,20.13
2018-12-13T10:09:39.541Z,20.39
2018-12-13T10:12:05.940Z,20.23
2018-12-13T10:14:32.285Z,19.68
2018-12-13T10:16:58.628Z,19.53
2018-12-13T10:19:24.966Z,20.41
2018-12-13T10:21:51.313Z,19.97
2018-12-13T10:24:17.651Z,19.76
2018-12-13T10:26:44.044Z,19.66
2018-12-13T10:29:10.375Z,19.49
2018-12-13T10:31:36.806Z,19.68
2018-12-13T10:34:03.137Z,19.70
2018-12-13T10:36:29.468Z,19.55
2018-12-13T10:38:55.820Z,19.76
2018-12-13T10:41:22.314Z,19.78
2018-12-13T10:43:48.676Z,19.82
2018-12-13T10:46:16.200Z,19.94
2018-12-13T10:48:42.603Z,20.20
2018-12-13T10:51:09.045Z,19.66
2018-12-13T10:53:35.451Z,19.81
2018-12-13T10:56:01.755Z,19.78
2018-12-13T10:58:28.169Z,19.84
2018-12-13T11:00:54.548Z,19.85
2018-12-13T11:03:20.880Z,19.81
2018-12-13T11:05:47.470Z,19.91
2018-12-13T11:08:14.866Z,19.88
2018-12-13T11:10:41.229Z,20.08
2018-12-13T11:13:07.576Z,20.03
2018-12-13T11:15:33.970Z,20.60
2018-12-13T11:18:00.452Z,21.57
2018-12-13T11:20:26.962Z,20.58
2018-12-13T11:22:53.403Z,20.88
2018-12-13T11:25:22.253Z,20.23
2018-12-13T11:27:50.772Z,19.96
2018-12-13T11:30:17.180Z,19.70
2018-12-13T11:32:43.573Z,19.78
2018-12-13T11:35:10.155Z,19.65
2018-12-13T11:37:36.403Z,19.69
2018-12-13T11:40:02.791Z,20.10
2018-12-13T11:42:29.135Z,19.74
2018-12-13T11:44:55.566Z,19.60
2018-12-13T11:47:22.452Z,19.49
2018-12-13T11:49:48.452Z,19.56
2018-12-13T11:52:14.797Z,19.89
2018-12-13T11:54:41.119Z,19.76
2018-12-13T11:57:07.469Z,21.61
2018-12-13T11:59:33.814Z,20.68
2018-12-13T12:02:00.288Z,20.46
2018-12-13T12:04:26.660Z,20.42
2018-12-13T12:06:53.052Z,20.01
2018-12-13T12:09:19.407Z,20.25
2018-12-13T12:11:46.134Z,19.96
2018-12-13T12:14:12.558Z,19.94
2018-12-13T12:16:38.884Z,19.45
2018-12-13T12:19:05.249Z,19.87
2018-12-13T12:21:31.661Z,19.65
2018-12-13T12:23:57.992Z,19.87
2018-12-13T12:26:24.407Z,19.91
2018-12-13T12:28:50.782Z,19.52
2018-12-13T12:31:17.114Z,19.52
2018-12-13T12:33:43.511Z,19.68
2018-12-13T12:36:09.879Z,19.77
2018-12-13T12:38:36.485Z,19.91
2018-12-13T12:41:03.145Z,19.73
2018-12-13T12:43:29.804Z,19.76
2018-12-13T12:45:56.145Z,19.61
2018-12-13T12:48:22.543Z,19.98
2018-12-13T12:50:48.896Z,19.87
2018-12-13T12:53:15.256Z,19.79
2018-12-13T12:55:42.718Z,19.78
2018-12-13T12:58:09.051Z,19.84
2018-12-13T13:00:35.519Z,19.99
2018-12-13T13:03:04.217Z,19.96
2018-12-13T13:05:30.778Z,19.88
2018-12-13T13:07:57.901Z,20.18
2018-12-13T13:10:23.809Z,19.91
2018-12-13T13:12:50.172Z,20.10
2018-12-13T13:15:16.560Z,20.29
2018-12-13T13:17:42.925Z,19.81
2018-12-13T13:20:09.327Z,20.01
2018-12-13T13:22:35.756Z,20.54
2018-12-13T13:25:02.193Z,20.23
2018-12-13T13:27:28.542Z,20.66
2018-12-13T13:29:54.932Z,20.10
2018-12-13T13:32:21.307Z,20.63
2018-12-13T13:34:47.774Z,20.10
2018-12-13T13:37:14.064Z,19.98
2018-12-13T13:39:41.404Z,20.16
2018-12-13T13:42:07.736Z,19.97
2018-12-13T13:44:34.168Z,19.99
2018-12-13T13:47:00.604Z,20.36
2018-12-13T13:49:29.447Z,20.27
2018-12-13T13:51:55.800Z,20.00
2018-12-13T13:54:22.184Z,20.68
2018-12-13T13:56:48.589Z,20.58
